createdAt,value
2023-02-20T00:02:35.394Z,63.51
2023-02-20T00:05:15.167Z,63.29
2023-02-20T00:11:59.065Z,62.91
2023-02-20T00:14:33.035Z,63.12
2023-02-20T00:17:08.409Z,63.13
2023-02-20T00:20:10.097Z,63.23
2023-02-20T00:22:45.834Z,63.15
2023-02-20T00:26:33.179Z,63.19
2023-02-20T00:29:08.167Z,62.94
2023-02-20T00:31:44.709Z,63.02
2023-02-20T00:34:17.353Z,62.94
2023-02-20T00:37:42.417Z,62.93
2023-02-20T00:40:45.669Z,62.79
2023-02-20T00:43:20.116Z,62.87
2023-02-20T00:46:22.064Z,63.05
2023-02-20T00:49:43.132Z,62.77
2023-02-20T00:52:47.251Z,62.92
2023-02-20T00:55:47.473Z,62.65
2023-02-20T00:58:21.872Z,62.62
2023-02-20T01:01:41.438Z,62.76
2023-02-20T01:04:20.884Z,62.67
2023-02-20T01:06:55.355Z,62.72
2023-02-20T01:09:29.456Z,62.85
2023-02-20T01:12:09.130Z,62.65
2023-02-20T01:14:43.586Z,62.44
2023-02-20T01:17:45.468Z,62.49
2023-02-20T01:20:19.775Z,62.30
2023-02-20T01:22:57.289Z,62.27
2023-02-20T01:25:35.600Z,62.37
2023-02-20T01:29:00.597Z,62.54
2023-02-20T01:32:24.624Z,62.28
2023-02-20T01:35:23.182Z,62.52
2023-02-20T01:37:58.769Z,62.59
2023-02-20T01:40:36.147Z,62.44
2023-02-20T01:43:10.030Z,62.51
2023-02-20T01:46:35.844Z,62.42
2023-02-20T01:52:50.464Z,62.62
2023-02-20T01:55:30.092Z,62.69
2023-02-20T01:58:04.674Z,62.66
2023-02-20T02:01:27.608Z,62.65
2023-02-20T02:04:30.251Z,62.57
2023-02-20T02:07:31.724Z,62.71
2023-02-20T02:13:08.435Z,62.87
2023-02-20T02:16:31.843Z,62.73
2023-02-20T02:19:54.236Z,62.73
2023-02-20T02:22:45.974Z,62.97
2023-02-20T02:28:57.565Z,62.74
2023-02-20T02:32:10.745Z,62.77
2023-02-20T02:41:52.754Z,62.69
2023-02-20T02:45:15.138Z,62.77
2023-02-20T02:48:00.085Z,62.57
2023-02-20T02:54:15.791Z,62.67
2023-02-20T02:56:54.788Z,62.73
2023-02-20T02:59:29.260Z,62.78
2023-02-20T03:02:10.183Z,62.66
2023-02-20T03:05:11.293Z,62.65
2023-02-20T03:07:49.159Z,62.72
2023-02-20T03:10:51.117Z,62.69
2023-02-20T03:13:39.298Z,62.61
2023-02-20T03:16:16.208Z,62.63
2023-02-20T03:19:15.268Z,62.56
2023-02-20T03:22:16.808Z,62.39
2023-02-20T03:25:17.068Z,62.47
2023-02-20T03:27:53.964Z,62.44
2023-02-20T03:30:52.186Z,62.35
2023-02-20T03:40:34.145Z,62.39
2023-02-20T03:43:39.990Z,62.39
2023-02-20T03:46:38.000Z,62.32
2023-02-20T03:49:43.850Z,62.22
2023-02-20T03:52:18.218Z,62.12
2023-02-20T03:58:38.116Z,62.13
2023-02-20T04:01:38.180Z,62.11
2023-02-20T04:04:18.396Z,62.04
2023-02-20T04:07:23.333Z,61.99
2023-02-20T04:10:01.671Z,62.27
2023-02-20T04:16:08.382Z,61.90
2023-02-20T04:19:32.255Z,62.01
2023-02-20T04:22:11.427Z,62.04
2023-02-20T04:24:47.510Z,62.10
2023-02-20T04:28:10.525Z,61.93
2023-02-20T04:30:42.747Z,61.89
2023-02-20T04:33:20.847Z,62.01
2023-02-20T04:39:41.945Z,62.00
2023-02-20T04:45:38.029Z,62.10
2023-02-20T04:48:59.514Z,62.14
2023-02-20T04:51:38.170Z,62.15
2023-02-20T04:54:13.747Z,62.14
2023-02-20T04:56:49.807Z,62.26
2023-02-20T04:59:27.496Z,62.33
2023-02-20T05:02:50.398Z,62.19
2023-02-20T05:05:26.176Z,62.32
2023-02-20T05:11:48.476Z,62.12
2023-02-20T05:14:48.901Z,62.29
2023-02-20T05:17:24.861Z,62.16
2023-02-20T05:19:57.622Z,62.16
2023-02-20T05:23:01.469Z,62.15
2023-02-20T05:32:24.166Z,61.74
2023-02-20T05:35:24.253Z,61.61
2023-02-20T05:38:00.468Z,61.37
2023-02-20T05:41:23.925Z,61.43
2023-02-20T05:44:49.301Z,61.15
2023-02-20T05:47:26.324Z,61.05
2023-02-20T05:50:00.122Z,60.88
2023-02-20T05:52:39.530Z,60.87
2023-02-20T05:55:16.294Z,60.78
2023-02-20T05:57:50.405Z,60.59
2023-02-20T06:00:49.130Z,60.36
2023-02-20T06:03:48.312Z,60.28
2023-02-20T06:09:49.109Z,60.30
2023-02-20T06:12:51.279Z,60.22
2023-02-20T06:15:53.401Z,60.36
2023-02-20T06:18:31.824Z,60.26
2023-02-20T06:21:40.247Z,60.40
2023-02-20T06:24:38.315Z,60.24
2023-02-20T06:28:01.516Z,60.26
2023-02-20T06:30:39.861Z,60.16
2023-02-20T06:33:40.600Z,60.14
2023-02-20T06:36:48.861Z,60.29
2023-02-20T06:39:26.001Z,60.49
2023-02-20T06:45:49.010Z,60.41
2023-02-20T06:49:13.753Z,60.31
2023-02-20T06:51:56.780Z,60.17
2023-02-20T06:58:16.550Z,59.94
2023-02-20T07:02:05.497Z,59.70
2023-02-20T07:05:27.803Z,59.50
2023-02-20T07:08:48.603Z,59.52
2023-02-20T07:11:25.811Z,59.02
2023-02-20T07:14:07.934Z,59.42
2023-02-20T07:17:11.224Z,59.31
2023-02-20T07:19:46.528Z,59.25
2023-02-20T07:23:01.406Z,58.82
2023-02-20T07:26:47.302Z,58.71
2023-02-20T07:29:24.093Z,58.43
2023-02-20T07:32:46.299Z,58.40
2023-02-20T07:35:19.852Z,58.09
2023-02-20T07:37:53.785Z,58.04
2023-02-20T07:40:32.288Z,57.82
2023-02-20T07:43:31.871Z,57.31
2023-02-20T07:46:04.427Z,57.08
2023-02-20T07:49:26.351Z,57.10
2023-02-20T07:52:29.629Z,56.96
2023-02-20T07:55:04.553Z,56.72
2023-02-20T07:57:40.671Z,56.43
2023-02-20T08:00:18.394Z,56.46
2023-02-20T08:02:54.757Z,56.80
2023-02-20T08:06:00.636Z,56.81
2023-02-20T08:08:36.270Z,57.02
2023-02-20T08:11:12.258Z,56.75
2023-02-20T08:13:48.682Z,56.85
2023-02-20T08:16:51.130Z,56.55
2023-02-20T08:19:26.872Z,56.24
2023-02-20T08:22:01.077Z,56.22
2023-02-20T08:24:35.861Z,56.38
2023-02-20T08:27:11.567Z,56.55
2023-02-20T08:29:50.135Z,56.58
2023-02-20T08:32:47.368Z,56.49
2023-02-20T08:35:20.423Z,56.44
2023-02-20T08:37:56.810Z,56.07
2023-02-20T08:40:35.464Z,55.91
2023-02-20T08:43:10.996Z,55.71
2023-02-20T08:45:48.896Z,56.03
2023-02-20T08:48:23.766Z,55.79
2023-02-20T08:50:56.920Z,55.39
2023-02-20T08:53:31.133Z,55.74
2023-02-20T08:56:07.155Z,55.88
2023-02-20T08:59:05.560Z,56.13
2023-02-20T09:01:44.798Z,55.14
2023-02-20T09:04:46.153Z,55.41
2023-02-20T09:07:18.670Z,54.93
2023-02-20T09:09:55.536Z,54.77
2023-02-20T09:12:34.202Z,54.87
2023-02-20T09:15:08.352Z,54.89
2023-02-20T09:17:44.812Z,54.86
2023-02-20T09:20:20.674Z,55.06
2023-02-20T09:22:53.705Z,54.98
2023-02-20T09:25:31.431Z,54.73
2023-02-20T09:28:05.816Z,55.24
2023-02-20T09:30:39.416Z,55.43
2023-02-20T09:33:36.071Z,55.16
2023-02-20T09:36:36.024Z,55.50
2023-02-20T09:39:08.017Z,55.89
2023-02-20T09:42:15.292Z,55.44
2023-02-20T09:45:21.922Z,55.74
2023-02-20T09:51:39.999Z,55.34
2023-02-20T09:55:01.033Z,55.72
2023-02-20T09:57:40.658Z,55.54
2023-02-20T10:00:21.898Z,55.59
2023-02-20T10:06:29.066Z,55.57
2023-02-20T10:09:30.257Z,55.96
2023-02-20T10:12:15.769Z,56.22
2023-02-20T10:15:19.348Z,56.32
2023-02-20T10:18:00.761Z,56.34
2023-02-20T10:21:07.356Z,56.17
2023-02-20T10:24:04.619Z,56.24
2023-02-20T10:26:46.340Z,56.05
2023-02-20T10:33:05.962Z,55.99
2023-02-20T10:36:09.962Z,55.34
2023-02-20T10:38:49.980Z,55.28
2023-02-20T10:44:59.208Z,55.54
2023-02-20T10:47:43.166Z,55.26
2023-02-20T10:54:12.810Z,55.14
2023-02-20T10:56:59.035Z,55.51
2023-02-20T10:59:35.299Z,55.46
2023-02-20T11:02:11.779Z,55.46
2023-02-20T11:04:54.710Z,55.20
2023-02-20T11:07:30.296Z,54.89
2023-02-20T11:10:05.658Z,54.52
2023-02-20T11:12:47.316Z,54.39
2023-02-20T11:15:26.275Z,53.82
2023-02-20T11:18:49.344Z,53.28
2023-02-20T11:21:40.820Z,53.77
2023-02-20T11:24:42.760Z,53.58
2023-02-20T11:27:17.873Z,53.95
2023-02-20T11:29:57.484Z,53.49
2023-02-20T11:32:40.662Z,53.82
2023-02-20T11:35:35.128Z,53.88
2023-02-20T11:38:36.067Z,54.11
2023-02-20T11:44:50.711Z,54.47
2023-02-20T11:48:12.285Z,54.16
2023-02-20T11:51:13.324Z,54.33
2023-02-20T11:53:53.861Z,54.04
2023-02-20T11:57:17.470Z,54.41
2023-02-20T12:00:20.018Z,54.48
2023-02-20T12:02:55.315Z,54.56
2023-02-20T12:09:27.894Z,54.64
2023-02-20T12:12:50.802Z,54.96
2023-02-20T12:15:30.002Z,54.86
2023-02-20T12:18:57.130Z,54.86
2023-02-20T12:21:38.148Z,54.62
2023-02-20T12:24:28.235Z,54.36
2023-02-20T12:27:04.457Z,54.02
2023-02-20T12:29:44.735Z,54.43
2023-02-20T12:32:49.064Z,54.60
2023-02-20T12:35:55.832Z,54.65
2023-02-20T12:39:03.199Z,54.26
2023-02-20T12:41:47.356Z,53.87
2023-02-20T12:44:30.662Z,53.44
2023-02-20T12:47:29.311Z,53.61
2023-02-20T12:50:37.263Z,54.10
2023-02-20T12:56:51.783Z,53.61
2023-02-20T13:00:05.112Z,53.52
2023-02-20T13:02:45.125Z,52.85
2023-02-20T13:06:10.173Z,53.02
2023-02-20T13:09:11.197Z,52.28
2023-02-20T13:12:56.276Z,51.83
2023-02-20T13:15:39.099Z,52.04
2023-02-20T13:21:51.395Z,51.83
2023-02-20T13:27:47.570Z,51.01
2023-02-20T13:34:16.104Z,51.22
2023-02-20T13:38:03.636Z,51.44
2023-02-20T13:40:41.684Z,51.24
2023-02-20T13:44:02.499Z,51.81
2023-02-20T13:47:28.123Z,51.80
2023-02-20T13:53:35.103Z,52.05
2023-02-20T13:56:15.808Z,51.96
2023-02-20T13:59:14.158Z,52.05
2023-02-20T14:02:34.116Z,51.98
2023-02-20T14:05:09.441Z,52.34
2023-02-20T14:17:23.428Z,52.73
2023-02-20T14:20:17.078Z,52.93
2023-02-20T14:26:56.684Z,53.22
2023-02-20T14:30:03.085Z,53.38
2023-02-20T14:32:38.003Z,53.53
2023-02-20T14:36:01.678Z,53.60
2023-02-20T14:39:15.688Z,53.69
2023-02-20T14:42:23.689Z,53.56
2023-02-20T14:45:00.317Z,53.62
2023-02-20T14:51:28.678Z,53.74
2023-02-20T14:54:28.748Z,53.64
2023-02-20T14:57:29.384Z,53.78
2023-02-20T15:00:37.966Z,53.65
2023-02-20T15:04:03.816Z,53.80
2023-02-20T15:07:10.602Z,53.95
2023-02-20T15:09:48.956Z,53.98
2023-02-20T15:12:29.969Z,54.08
2023-02-20T15:15:09.292Z,54.25
2023-02-20T15:17:47.558Z,54.23
2023-02-20T15:20:39.060Z,54.08
2023-02-20T15:23:27.328Z,54.04
2023-02-20T15:26:52.738Z,53.92
2023-02-20T15:30:13.453Z,54.01
2023-02-20T15:33:21.013Z,53.91
2023-02-20T15:39:17.010Z,53.72
2023-02-20T15:44:42.153Z,53.19
2023-02-20T15:47:17.860Z,53.44
2023-02-20T15:49:58.769Z,53.06
2023-02-20T15:52:39.089Z,53.06
2023-02-20T15:55:17.660Z,52.82
2023-02-20T15:57:57.178Z,52.54
2023-02-20T16:00:37.867Z,52.42
2023-02-20T16:03:50.985Z,51.93
2023-02-20T16:06:49.873Z,52.38
2023-02-20T16:09:49.276Z,52.37
2023-02-20T16:12:27.233Z,51.77
2023-02-20T16:15:02.213Z,51.55
2023-02-20T16:17:38.650Z,51.72
2023-02-20T16:20:18.045Z,51.67
2023-02-20T16:22:52.321Z,51.33
2023-02-20T16:25:29.853Z,51.41
2023-02-20T16:28:04.622Z,51.56
2023-02-20T16:31:05.177Z,51.64
2023-02-20T16:34:05.955Z,51.45
2023-02-20T16:36:45.699Z,50.93
2023-02-20T16:39:26.327Z,50.87
2023-02-20T16:42:33.187Z,50.91
2023-02-20T16:45:31.596Z,50.93
2023-02-20T16:48:14.265Z,51.36
2023-02-20T16:51:18.154Z,50.94
2023-02-20T16:53:51.592Z,50.84
2023-02-20T16:56:31.658Z,51.09
2023-02-20T16:59:05.602Z,50.79
2023-02-20T17:01:45.980Z,50.89
2023-02-20T17:04:43.939Z,50.67
2023-02-20T17:07:24.022Z,50.94
2023-02-20T17:13:48.229Z,50.41
2023-02-20T17:16:32.208Z,50.51
2023-02-20T17:19:32.911Z,50.61
2023-02-20T17:22:29.965Z,50.41
2023-02-20T17:25:04.745Z,50.53
2023-02-20T17:27:39.976Z,50.46
2023-02-20T17:33:19.003Z,50.21
2023-02-20T17:35:52.891Z,50.11
2023-02-20T17:38:28.969Z,50.27
2023-02-20T17:41:55.219Z,49.92
2023-02-20T17:44:51.400Z,49.85
2023-02-20T17:47:26.238Z,50.06
2023-02-20T17:50:30.993Z,50.00
2023-02-20T17:53:09.288Z,49.97
2023-02-20T17:55:48.075Z,50.19
2023-02-20T17:58:26.140Z,50.20
2023-02-20T18:00:58.832Z,50.30
2023-02-20T18:07:19.954Z,49.89
2023-02-20T18:10:18.056Z,50.01
2023-02-20T18:13:04.263Z,49.93
2023-02-20T18:25:09.196Z,49.98
2023-02-20T18:27:43.466Z,49.81
2023-02-20T18:30:16.549Z,50.32
2023-02-20T18:32:53.190Z,50.27
2023-02-20T18:36:05.959Z,50.04
2023-02-20T18:38:42.982Z,50.18
2023-02-20T18:41:26.339Z,49.87
2023-02-20T18:44:27.658Z,49.95
2023-02-20T18:47:00.905Z,49.85
2023-02-20T18:49:42.057Z,49.88
2023-02-20T18:53:07.522Z,49.79
2023-02-20T18:55:41.475Z,49.68
2023-02-20T18:58:41.353Z,49.90
2023-02-20T19:01:21.025Z,49.85
2023-02-20T19:03:56.341Z,49.93
2023-02-20T19:06:43.318Z,49.99
2023-02-20T19:09:43.409Z,50.10
2023-02-20T19:12:19.463Z,49.82
2023-02-20T19:15:18.449Z,49.84
2023-02-20T19:18:15.821Z,49.73
2023-02-20T19:20:56.875Z,49.95
2023-02-20T19:23:54.555Z,49.92
2023-02-20T19:26:36.188Z,49.84
2023-02-20T19:29:14.011Z,49.96
2023-02-20T19:32:15.524Z,50.08
2023-02-20T19:34:54.840Z,50.05
2023-02-20T19:37:28.666Z,49.99
2023-02-20T19:40:26.653Z,50.26
2023-02-20T19:43:04.413Z,50.21
2023-02-20T19:45:41.163Z,50.23
2023-02-20T19:49:04.456Z,50.41
2023-02-20T19:52:03.881Z,50.40
2023-02-20T19:57:34.440Z,50.64
2023-02-20T20:00:10.782Z,50.70
2023-02-20T20:02:48.023Z,50.73
2023-02-20T20:05:23.957Z,50.89
2023-02-20T20:08:06.705Z,50.90
2023-02-20T20:10:42.916Z,51.03
2023-02-20T20:13:41.086Z,51.06
2023-02-20T20:16:15.096Z,51.07
2023-02-20T20:18:59.985Z,51.25
2023-02-20T20:22:00.830Z,51.14
2023-02-20T20:24:39.757Z,51.45
2023-02-20T20:27:27.180Z,51.47
2023-02-20T20:30:45.360Z,51.50
2023-02-20T20:33:45.678Z,51.60
2023-02-20T20:36:27.023Z,51.43
2023-02-20T20:39:28.959Z,51.54
2023-02-20T20:42:31.829Z,51.46
2023-02-20T20:45:08.071Z,51.58
2023-02-20T20:47:41.196Z,51.72
2023-02-20T20:53:57.781Z,51.66
2023-02-20T20:56:34.077Z,51.70
2023-02-20T21:02:54.611Z,51.74
2023-02-20T21:05:30.235Z,51.86
2023-02-20T21:08:35.009Z,51.65
2023-02-20T21:11:08.434Z,51.63
2023-02-20T21:13:48.668Z,51.65
2023-02-20T21:16:23.457Z,51.62
2023-02-20T21:18:57.324Z,51.49
2023-02-20T21:21:36.063Z,51.42
2023-02-20T21:24:09.683Z,51.51
2023-02-20T21:27:09.325Z,51.23
2023-02-20T21:29:42.852Z,51.27
2023-02-20T21:32:18.102Z,51.06
2023-02-20T21:34:56.377Z,51.15
2023-02-20T21:37:28.990Z,51.01
2023-02-20T21:43:33.836Z,50.85
2023-02-20T21:46:10.945Z,50.96
2023-02-20T21:48:43.856Z,50.78
2023-02-20T21:51:18.755Z,50.62
2023-02-20T21:53:53.025Z,50.57
2023-02-20T21:56:25.155Z,50.53
2023-02-20T21:59:05.849Z,50.46
2023-02-20T22:01:42.057Z,50.23
2023-02-20T22:04:18.312Z,50.13
2023-02-20T22:11:15.183Z,50.15
2023-02-20T22:14:14.467Z,49.84
2023-02-20T22:21:13.340Z,49.90
2023-02-20T22:25:04.476Z,49.76
2023-02-20T22:28:03.021Z,49.75
2023-02-20T22:34:20.981Z,50.04
2023-02-20T22:37:14.347Z,49.80
2023-02-20T22:40:11.092Z,49.81
2023-02-20T22:50:28.900Z,49.91
2023-02-20T22:57:11.063Z,50.43
2023-02-20T23:00:07.214Z,50.28
2023-02-20T23:03:03.979Z,50.08
2023-02-20T23:06:46.393Z,50.22
2023-02-20T23:10:28.818Z,50.30
2023-02-20T23:13:20.351Z,50.41
2023-02-20T23:19:59.802Z,50.22
2023-02-20T23:22:55.727Z,50.35
2023-02-20T23:29:27.798Z,50.22
2023-02-20T23:39:41.299Z,50.03
2023-02-20T23:50:17.946Z,50.35
